createdAt,value
2017-04-15T00:00:04.703Z,0
2017-04-15T00:01:13.795Z,0
2017-04-15T00:02:23.197Z,0
2017-04-15T00:03:32.605Z,0
2017-04-15T00:04:41.677Z,0
2017-04-15T00:05:51.072Z,0
2017-04-15T00:07:00.471Z,0
2017-04-15T00:08:09.512Z,0
2017-04-15T00:09:18.892Z,0
2017-04-15T00:10:27.666Z,0
2017-04-15T00:11:36.748Z,0
2017-04-15T00:12:46.971Z,0
2017-04-15T00:13:56.361Z,0
2017-04-15T00:15:05.754Z,0
2017-04-15T00:16:14.861Z,0
2017-04-15T00:17:24.212Z,0
2017-04-15T00:18:33.591Z,0
2017-04-15T00:19:42.374Z,0
2017-04-15T00:20:51.168Z,0
2017-04-15T00:22:00.262Z,0
2017-04-15T00:23:09.363Z,0
2017-04-15T00:24:18.507Z,0
2017-04-15T00:25:27.289Z,0
2017-04-15T00:26:36.086Z,0
2017-04-15T00:27:45.496Z,0
2017-04-15T00:28:55.377Z,0
2017-04-15T00:30:04.167Z,0
2017-04-15T00:31:13.772Z,0
2017-04-15T00:32:22.505Z,0
2017-04-15T00:33:31.880Z,0
2017-04-15T00:34:40.976Z,0
2017-04-15T00:35:50.371Z,0
2017-04-15T00:36:59.716Z,0
2017-04-15T00:38:08.497Z,0
2017-04-15T00:39:17.906Z,0
2017-04-15T00:40:26.994Z,0
2017-04-15T00:41:36.085Z,0
2017-04-15T00:42:45.797Z,0
2017-04-15T00:43:55.306Z,0
2017-04-15T00:45:05.011Z,0
2017-04-15T00:46:13.796Z,0
2017-04-15T00:47:23.201Z,0
2017-04-15T00:48:32.896Z,0
2017-04-15T00:49:41.676Z,0
2017-04-15T00:50:50.504Z,0
2017-04-15T00:51:59.295Z,0
2017-04-15T00:53:08.066Z,0
2017-04-15T00:54:16.844Z,0
2017-04-15T00:55:26.238Z,0
2017-04-15T00:56:35.010Z,0
2017-04-15T00:57:43.794Z,0
2017-04-15T00:58:52.574Z,0
2017-04-15T01:00:01.739Z,0
2017-04-15T01:01:10.831Z,0
2017-04-15T01:02:20.346Z,0
2017-04-15T01:03:29.126Z,0
2017-04-15T01:04:38.225Z,0
2017-04-15T01:05:47.102Z,0
2017-04-15T01:06:55.829Z,0
2017-04-15T01:08:05.521Z,0
2017-04-15T01:09:14.606Z,0
2017-04-15T01:10:23.398Z,0
2017-04-15T01:11:32.792Z,0
2017-04-15T01:12:42.189Z,0
2017-04-15T01:13:51.541Z,0
2017-04-15T01:15:00.609Z,0
2017-04-15T01:16:09.337Z,0
2017-04-15T01:17:18.667Z,0
2017-04-15T01:18:28.307Z,0
2017-04-15T01:19:37.398Z,0
2017-04-15T01:20:46.788Z,0
2017-04-15T01:21:56.175Z,0
2017-04-15T01:23:05.576Z,0
2017-04-15T01:24:14.828Z,0
2017-04-15T01:25:24.217Z,0
2017-04-15T01:26:33.611Z,0
2017-04-15T01:27:42.706Z,0
2017-04-15T01:28:51.794Z,0
2017-04-15T01:30:00.874Z,0
2017-04-15T01:31:09.907Z,0
2017-04-15T01:32:18.972Z,0
2017-04-15T01:33:28.380Z,0
2017-04-15T01:34:37.765Z,0
2017-04-15T01:35:46.745Z,0
2017-04-15T01:36:55.982Z,0
2017-04-15T01:38:05.079Z,0
2017-04-15T01:39:14.114Z,0
2017-04-15T01:40:22.829Z,0
2017-04-15T01:41:31.892Z,0
2017-04-15T01:42:40.927Z,0
2017-04-15T01:43:49.690Z,0
2017-04-15T01:44:59.082Z,0
2017-04-15T01:46:08.496Z,0
2017-04-15T01:47:17.577Z,0
2017-04-15T01:48:27.295Z,0
2017-04-15T01:49:36.996Z,0
2017-04-15T01:50:46.062Z,0
2017-04-15T01:51:54.837Z,0
2017-04-15T01:53:04.244Z,0
2017-04-15T01:54:13.306Z,0
2017-04-15T01:55:22.995Z,0
2017-04-15T01:56:31.779Z,0
2017-04-15T01:57:40.872Z,0
2017-04-15T01:58:50.236Z,0
2017-04-15T01:59:59.323Z,0
2017-04-15T02:01:08.673Z,0
2017-04-15T02:02:17.396Z,0
2017-04-15T02:03:26.171Z,0
2017-04-15T02:04:35.554Z,0
2017-04-15T02:05:45.254Z,0
2017-04-15T02:06:54.029Z,0
2017-04-15T02:08:03.369Z,0
2017-04-15T02:09:12.757Z,0
2017-04-15T02:10:21.853Z,0
2017-04-15T02:11:30.585Z,0
2017-04-15T02:12:39.968Z,0
2017-04-15T02:13:49.608Z,0
2017-04-15T02:14:58.681Z,0
2017-04-15T02:16:07.767Z,0
2017-04-15T02:17:16.850Z,0
2017-04-15T02:18:25.918Z,0
2017-04-15T02:19:35.302Z,0
2017-04-15T02:20:44.389Z,0
2017-04-15T02:21:53.173Z,0
2017-04-15T02:23:02.873Z,0
2017-04-15T02:24:12.275Z,0
2017-04-15T02:25:21.652Z,0
2017-04-15T02:26:30.487Z,0
2017-04-15T02:27:40.034Z,0
2017-04-15T02:28:50.086Z,0
2017-04-15T02:29:59.483Z,0
2017-04-15T02:31:08.826Z,0
2017-04-15T02:32:18.210Z,0
2017-04-15T02:33:26.999Z,0
2017-04-15T02:34:36.083Z,0
2017-04-15T02:35:44.816Z,0
2017-04-15T02:36:53.879Z,0
2017-04-15T02:38:03.209Z,0
2017-04-15T02:39:12.593Z,0
2017-04-15T02:40:21.386Z,0
2017-04-15T02:41:30.467Z,0
2017-04-15T02:42:39.554Z,0
2017-04-15T02:43:49.553Z,0
2017-04-15T02:44:58.741Z,0
2017-04-15T02:46:08.087Z,0
2017-04-15T02:47:17.733Z,0
2017-04-15T02:48:26.509Z,0
2017-04-15T02:49:35.905Z,0
2017-04-15T02:50:44.936Z,0
2017-04-15T02:51:54.296Z,0
2017-04-15T02:53:03.071Z,0
2017-04-15T02:54:12.163Z,0
2017-04-15T02:55:27.821Z,0
2017-04-15T02:56:36.898Z,0
2017-04-15T02:57:46.284Z,0
2017-04-15T02:58:55.361Z,0
2017-04-15T03:00:04.763Z,0
2017-04-15T03:01:13.846Z,0
2017-04-15T03:02:22.929Z,0
2017-04-15T03:03:32.307Z,0
2017-04-15T03:04:42.010Z,0
2017-04-15T03:05:50.790Z,0
2017-04-15T03:06:59.564Z,0
2017-04-15T03:08:08.940Z,0
2017-04-15T03:09:18.023Z,0
2017-04-15T03:10:27.403Z,0
2017-04-15T03:11:36.175Z,0
2017-04-15T03:12:45.555Z,0
2017-04-15T03:13:54.373Z,0
2017-04-15T03:15:03.464Z,0
2017-04-15T03:16:12.629Z,0
2017-04-15T03:17:21.634Z,0
2017-04-15T03:18:30.696Z,0
2017-04-15T03:19:40.085Z,0
2017-04-15T03:20:48.851Z,0
2017-04-15T03:21:57.640Z,0
2017-04-15T03:23:06.710Z,0
2017-04-15T03:24:15.790Z,0
2017-04-15T03:25:24.561Z,0
2017-04-15T03:26:33.333Z,0
2017-04-15T03:27:43.022Z,0
2017-04-15T03:28:52.347Z,0
2017-04-15T03:30:01.659Z,0
2017-04-15T03:31:10.662Z,0
2017-04-15T03:32:19.717Z,0
2017-04-15T03:33:28.493Z,0
2017-04-15T03:34:37.265Z,0
2017-04-15T03:35:46.333Z,0
2017-04-15T03:36:55.354Z,0
2017-04-15T03:38:04.368Z,0
2017-04-15T03:39:13.440Z,0
2017-04-15T03:40:22.220Z,0
2017-04-15T03:41:31.302Z,0
2017-04-15T03:42:40.082Z,0
2017-04-15T03:43:48.858Z,0
2017-04-15T03:44:58.238Z,0
2017-04-15T03:46:07.312Z,0
2017-04-15T03:47:16.080Z,0
2017-04-15T03:48:24.809Z,0
2017-04-15T03:49:33.869Z,0
2017-04-15T03:50:42.645Z,0
2017-04-15T03:51:52.019Z,0
2017-04-15T03:53:00.762Z,0
2017-04-15T03:54:09.827Z,0
2017-04-15T03:55:18.590Z,0
2017-04-15T03:56:27.668Z,0
2017-04-15T03:57:36.741Z,0
2017-04-15T03:58:46.686Z,0
2017-04-15T03:59:56.261Z,0
2017-04-15T04:01:04.981Z,0
2017-04-15T04:02:14.040Z,0
2017-04-15T04:03:23.425Z,0
2017-04-15T04:04:32.203Z,0
2017-04-15T04:05:41.275Z,0
2017-04-15T04:06:50.281Z,0
2017-04-15T04:08:00.158Z,0
2017-04-15T04:09:08.874Z,0
2017-04-15T04:10:18.637Z,0
2017-04-15T04:11:27.353Z,0
2017-04-15T04:12:36.224Z,0
2017-04-15T04:13:46.027Z,0
2017-04-15T04:14:55.573Z,0
2017-04-15T04:16:04.575Z,0
2017-04-15T04:17:13.355Z,0
2017-04-15T04:18:22.799Z,0
2017-04-15T04:19:31.890Z,0
2017-04-15T04:20:40.664Z,4
2017-04-15T04:21:49.740Z,4
2017-04-15T04:22:58.817Z,4
2017-04-15T04:24:08.459Z,4
2017-04-15T04:25:17.529Z,4
2017-04-15T04:26:26.298Z,0
2017-04-15T04:27:35.568Z,4
2017-04-15T04:28:45.249Z,4
2017-04-15T04:29:54.335Z,4
2017-04-15T04:31:03.661Z,8
2017-04-15T04:32:13.046Z,4
2017-04-15T04:33:22.423Z,4
2017-04-15T04:34:31.196Z,4
2017-04-15T04:35:40.294Z,4
2017-04-15T04:36:49.059Z,8
2017-04-15T04:37:58.142Z,8
2017-04-15T04:39:07.837Z,8
2017-04-15T04:40:16.621Z,8
2017-04-15T04:41:25.715Z,12
2017-04-15T04:42:34.474Z,16
2017-04-15T04:43:44.455Z,16
2017-04-15T04:44:54.086Z,16
2017-04-15T04:46:03.146Z,20
2017-04-15T04:47:11.927Z,20
2017-04-15T04:48:21.628Z,20
2017-04-15T04:49:30.406Z,20
2017-04-15T04:50:39.473Z,20
2017-04-15T04:51:48.249Z,20
2017-04-15T04:52:57.044Z,28
2017-04-15T04:54:06.120Z,32
2017-04-15T04:55:14.834Z,36
2017-04-15T04:56:24.199Z,44
2017-04-15T04:57:33.271Z,48
2017-04-15T04:58:42.674Z,52
2017-04-15T04:59:52.854Z,56
2017-04-15T05:01:02.214Z,48
2017-04-15T05:02:10.989Z,48
2017-04-15T05:03:20.066Z,48
2017-04-15T05:04:30.279Z,56
2017-04-15T05:05:39.776Z,48
2017-04-15T05:06:49.142Z,52
2017-04-15T05:07:58.451Z,48
2017-04-15T05:09:08.219Z,48
2017-04-15T05:10:17.794Z,48
2017-04-15T05:11:26.561Z,48
2017-04-15T05:12:35.333Z,44
2017-04-15T05:13:45.028Z,36
2017-04-15T05:14:53.912Z,44
2017-04-15T05:16:02.923Z,48
2017-04-15T05:17:11.678Z,44
2017-04-15T05:18:21.053Z,36
2017-04-15T05:19:30.146Z,52
2017-04-15T05:20:40.138Z,72
2017-04-15T05:21:49.515Z,72
2017-04-15T05:22:58.556Z,80
2017-04-15T05:24:08.253Z,100
2017-04-15T05:25:17.322Z,108
2017-04-15T05:26:26.112Z,120
2017-04-15T05:27:35.137Z,124
2017-04-15T05:28:44.506Z,124
2017-04-15T05:29:53.882Z,124
2017-04-15T05:31:03.479Z,124
2017-04-15T05:32:12.505Z,120
2017-04-15T05:33:21.595Z,116
2017-04-15T05:34:30.985Z,112
2017-04-15T05:35:40.056Z,124
2017-04-15T05:36:49.130Z,132
2017-04-15T05:37:57.848Z,92
2017-04-15T05:39:06.928Z,64
2017-04-15T05:40:16.005Z,100
2017-04-15T05:41:25.375Z,92
2017-04-15T05:42:34.966Z,120
2017-04-15T05:43:44.649Z,136
2017-04-15T05:44:54.240Z,140
2017-04-15T05:46:03.313Z,128
2017-04-15T05:47:12.076Z,116
2017-04-15T05:48:21.418Z,112
2017-04-15T05:49:30.475Z,108
2017-04-15T05:50:39.253Z,108
2017-04-15T05:51:48.323Z,108
2017-04-15T05:52:57.410Z,108
2017-04-15T05:54:06.483Z,100
2017-04-15T05:55:15.564Z,104
2017-04-15T05:56:24.643Z,120
2017-04-15T05:57:34.025Z,120
2017-04-15T05:58:43.651Z,112
2017-04-15T05:59:52.716Z,88
2017-04-15T06:01:01.488Z,72
2017-04-15T06:02:10.564Z,80
2017-04-15T06:03:19.955Z,96
2017-04-15T06:04:29.353Z,136
2017-04-15T06:05:39.039Z,132
2017-04-15T06:06:48.061Z,112
2017-04-15T06:07:57.132Z,100
2017-04-15T06:09:06.660Z,100
2017-04-15T06:10:15.741Z,92
2017-04-15T06:11:24.823Z,100
2017-04-15T06:12:33.894Z,104
2017-04-15T06:13:43.279Z,104
2017-04-15T06:14:52.656Z,136
2017-04-15T06:16:01.377Z,140
2017-04-15T06:17:10.431Z,160
2017-04-15T06:18:19.813Z,208
2017-04-15T06:19:29.455Z,228
2017-04-15T06:20:38.218Z,240
2017-04-15T06:21:47.295Z,196
2017-04-15T06:22:56.679Z,144
2017-04-15T06:24:05.761Z,116
2017-04-15T06:25:15.157Z,168
2017-04-15T06:26:23.934Z,172
2017-04-15T06:27:33.000Z,164
2017-04-15T06:28:42.992Z,116
2017-04-15T06:29:52.061Z,124
2017-04-15T06:31:01.151Z,112
2017-04-15T06:32:10.234Z,188
2017-04-15T06:33:19.623Z,192
2017-04-15T06:34:29.010Z,168
2017-04-15T06:35:38.087Z,204
2017-04-15T06:36:47.154Z,176
2017-04-15T06:37:56.238Z,152
2017-04-15T06:39:05.317Z,160
2017-04-15T06:40:14.390Z,180
2017-04-15T06:41:23.464Z,184
2017-04-15T06:42:32.243Z,168
2017-04-15T06:43:41.624Z,172
2017-04-15T06:44:50.700Z,152
2017-04-15T06:45:59.775Z,212
2017-04-15T06:47:08.866Z,228
2017-04-15T06:48:17.936Z,212
2017-04-15T06:49:27.824Z,236
2017-04-15T06:50:36.595Z,244
2017-04-15T06:51:45.360Z,208
2017-04-15T06:52:54.751Z,196
2017-04-15T06:54:03.829Z,228
2017-04-15T06:55:12.905Z,220
2017-04-15T06:56:22.294Z,196
2017-04-15T06:57:31.689Z,216
2017-04-15T06:58:40.781Z,212
2017-04-15T06:59:49.861Z,216
2017-04-15T07:00:59.148Z,196
2017-04-15T07:02:07.993Z,224
2017-04-15T07:03:17.367Z,212
2017-04-15T07:04:27.056Z,228
2017-04-15T07:05:36.134Z,224
2017-04-15T07:06:44.903Z,208
2017-04-15T07:07:54.395Z,180
2017-04-15T07:09:03.751Z,196
2017-04-15T07:10:12.702Z,192
2017-04-15T07:11:21.761Z,188
2017-04-15T07:12:31.451Z,196
2017-04-15T07:13:40.512Z,244
2017-04-15T07:14:49.661Z,244
2017-04-15T07:15:58.790Z,272
2017-04-15T07:17:07.862Z,244
2017-04-15T07:18:17.139Z,268
2017-04-15T07:19:26.521Z,264
2017-04-15T07:20:35.749Z,256
2017-04-15T07:21:44.820Z,276
2017-04-15T07:22:54.525Z,284
2017-04-15T07:24:03.390Z,260
2017-04-15T07:25:12.730Z,272
2017-04-15T07:26:22.115Z,236
2017-04-15T07:27:30.884Z,288
2017-04-15T07:28:39.965Z,316
2017-04-15T07:29:49.348Z,316
2017-04-15T07:30:58.433Z,296
2017-04-15T07:32:08.127Z,288
2017-04-15T07:33:17.532Z,388
2017-04-15T07:34:26.250Z,356
2017-04-15T07:35:35.008Z,376
2017-04-15T07:36:44.084Z,372
2017-04-15T07:37:53.163Z,332
2017-04-15T07:39:02.265Z,296
2017-04-15T07:40:11.660Z,340
2017-04-15T07:41:20.683Z,356
2017-04-15T07:42:29.444Z,356
2017-04-15T07:43:38.838Z,380
2017-04-15T07:44:48.226Z,396
2017-04-15T07:45:57.005Z,304
2017-04-15T07:47:05.768Z,320
2017-04-15T07:48:14.856Z,332
2017-04-15T07:49:24.848Z,388
2017-04-15T07:50:34.229Z,428
2017-04-15T07:51:43.201Z,376
2017-04-15T07:52:52.291Z,420
2017-04-15T07:54:02.288Z,448
2017-04-15T07:55:11.374Z,380
2017-04-15T07:56:20.150Z,340
2017-04-15T07:57:28.902Z,340
2017-04-15T07:58:37.680Z,312
2017-04-15T07:59:46.731Z,280
2017-04-15T08:00:55.756Z,300
2017-04-15T08:02:05.124Z,308
2017-04-15T08:03:13.895Z,512
2017-04-15T08:04:23.283Z,400
2017-04-15T08:05:32.667Z,400
2017-04-15T08:06:41.390Z,404
2017-04-15T08:07:50.456Z,328
2017-04-15T08:09:00.456Z,388
2017-04-15T08:10:09.237Z,312
2017-04-15T08:11:18.316Z,348
2017-04-15T08:12:27.094Z,368
2017-04-15T08:13:35.870Z,360
2017-04-15T08:14:45.262Z,368
2017-04-15T08:15:54.653Z,380
2017-04-15T08:17:03.671Z,388
2017-04-15T08:18:12.730Z,448
2017-04-15T08:19:21.971Z,384
2017-04-15T08:20:31.045Z,256
2017-04-15T08:21:39.823Z,308
2017-04-15T08:22:49.044Z,284
2017-04-15T08:23:58.202Z,276
2017-04-15T08:25:07.295Z,392
2017-04-15T08:26:16.074Z,320
2017-04-15T08:27:24.835Z,272
2017-04-15T08:28:34.221Z,260
2017-04-15T08:29:43.907Z,292
2017-04-15T08:30:52.981Z,336
2017-04-15T08:32:02.051Z,288
2017-04-15T08:33:10.841Z,364
2017-04-15T08:34:19.916Z,288
2017-04-15T08:35:29.022Z,316
2017-04-15T08:36:37.799Z,308
2017-04-15T08:37:46.876Z,240
2017-04-15T08:38:56.315Z,228
2017-04-15T08:40:05.382Z,300
2017-04-15T08:41:14.146Z,252
2017-04-15T08:42:22.921Z,264
2017-04-15T08:43:32.014Z,408
2017-04-15T08:44:41.097Z,256
2017-04-15T08:45:50.054Z,276
2017-04-15T08:46:59.746Z,340
2017-04-15T08:48:08.784Z,284
2017-04-15T08:49:18.281Z,324
2017-04-15T08:50:27.275Z,304
2017-04-15T08:51:36.190Z,304
2017-04-15T08:52:45.610Z,284
2017-04-15T08:53:54.686Z,288
2017-04-15T08:55:03.898Z,272
2017-04-15T08:56:13.135Z,328
2017-04-15T08:57:21.912Z,344
2017-04-15T08:58:30.699Z,288
2017-04-15T08:59:39.803Z,300
2017-04-15T09:00:49.386Z,344
2017-04-15T09:01:58.769Z,336
2017-04-15T09:03:08.087Z,364
2017-04-15T09:04:16.854Z,416
2017-04-15T09:05:25.939Z,444
2017-04-15T09:06:34.712Z,476
2017-04-15T09:07:43.791Z,372
2017-04-15T09:08:52.880Z,388
2017-04-15T09:10:01.958Z,384
2017-04-15T09:11:11.047Z,352
2017-04-15T09:12:20.430Z,320
2017-04-15T09:13:29.804Z,296
2017-04-15T09:14:38.585Z,276
2017-04-15T09:15:47.970Z,268
2017-04-15T09:16:56.897Z,288
2017-04-15T09:18:05.986Z,260
2017-04-15T09:19:14.757Z,256
2017-04-15T09:20:23.782Z,236
2017-04-15T09:21:32.844Z,284
2017-04-15T09:22:42.206Z,288
2017-04-15T09:23:51.594Z,320
2017-04-15T09:25:01.585Z,332
2017-04-15T09:26:11.242Z,272
2017-04-15T09:27:21.115Z,256
2017-04-15T09:28:30.801Z,276
2017-04-15T09:29:39.868Z,324
2017-04-15T09:30:48.915Z,296
2017-04-15T09:31:57.677Z,320
2017-04-15T09:33:07.071Z,300
2017-04-15T09:34:16.457Z,292
2017-04-15T09:35:26.146Z,296
2017-04-15T09:36:35.218Z,324
2017-04-15T09:37:44.249Z,344
2017-04-15T09:38:53.564Z,292
2017-04-15T09:40:02.638Z,264
2017-04-15T09:41:11.724Z,308
2017-04-15T09:42:20.511Z,352
2017-04-15T09:43:29.898Z,416
2017-04-15T09:44:38.988Z,428
2017-04-15T09:45:48.057Z,460
2017-04-15T09:46:56.913Z,520
2017-04-15T09:48:06.905Z,516
2017-04-15T09:49:16.296Z,536
2017-04-15T09:50:25.083Z,300
2017-04-15T09:51:33.866Z,280
2017-04-15T09:52:43.248Z,448
2017-04-15T09:53:52.548Z,572
2017-04-15T09:55:01.524Z,320
2017-04-15T09:56:10.600Z,296
2017-04-15T09:57:19.982Z,384
2017-04-15T09:58:29.357Z,352
2017-04-15T09:59:38.739Z,332
2017-04-15T10:00:47.798Z,516
2017-04-15T10:01:57.182Z,560
2017-04-15T10:03:06.810Z,504
2017-04-15T10:04:15.674Z,452
2017-04-15T10:05:25.352Z,408
2017-04-15T10:06:34.788Z,744
2017-04-15T10:07:43.562Z,592
2017-04-15T10:08:52.632Z,396
2017-04-15T10:10:02.568Z,308
2017-04-15T10:11:11.653Z,288
2017-04-15T10:12:20.729Z,372
2017-04-15T10:13:29.756Z,344
2017-04-15T10:14:38.481Z,676
2017-04-15T10:15:47.241Z,440
2017-04-15T10:16:55.958Z,1008
2017-04-15T10:18:05.029Z,1300
2017-04-15T10:19:15.023Z,1300
2017-04-15T10:20:23.772Z,1616
2017-04-15T10:21:32.550Z,1036
2017-04-15T10:22:42.183Z,1276
2017-04-15T10:23:51.244Z,996
2017-04-15T10:25:00.022Z,1036
2017-04-15T10:26:08.794Z,1072
2017-04-15T10:27:17.870Z,1188
2017-04-15T10:28:26.954Z,916
2017-04-15T10:29:35.728Z,736
2017-04-15T10:30:44.804Z,820
2017-04-15T10:31:53.577Z,1008
2017-04-15T10:33:02.645Z,720
2017-04-15T10:34:11.370Z,444
2017-04-15T10:35:20.441Z,432
2017-04-15T10:36:29.534Z,312
2017-04-15T10:37:38.259Z,208
2017-04-15T10:38:47.325Z,224
2017-04-15T10:39:57.013Z,172
2017-04-15T10:41:06.364Z,220
2017-04-15T10:42:15.420Z,468
2017-04-15T10:43:24.795Z,324
2017-04-15T10:44:34.791Z,428
2017-04-15T10:45:44.500Z,520
2017-04-15T10:46:53.518Z,796
2017-04-15T10:48:02.593Z,724
2017-04-15T10:49:11.628Z,644
2017-04-15T10:50:20.653Z,572
2017-04-15T10:51:29.718Z,600
2017-04-15T10:52:38.798Z,696
2017-04-15T10:53:48.175Z,736
2017-04-15T10:54:57.556Z,640
2017-04-15T10:56:06.574Z,736
2017-04-15T10:57:15.643Z,684
2017-04-15T10:58:24.728Z,524
2017-04-15T10:59:34.066Z,676
2017-04-15T11:00:42.829Z,756
2017-04-15T11:01:51.847Z,728
2017-04-15T11:03:00.603Z,588
2017-04-15T11:04:09.376Z,488
2017-04-15T11:05:18.468Z,416
2017-04-15T11:06:27.262Z,440
2017-04-15T11:07:36.805Z,488
2017-04-15T11:08:45.819Z,420
2017-04-15T11:09:55.190Z,528
2017-04-15T11:11:04.223Z,672
2017-04-15T11:12:13.296Z,860
2017-04-15T11:13:22.072Z,648
2017-04-15T11:14:30.845Z,716
2017-04-15T11:15:39.922Z,792
2017-04-15T11:16:48.692Z,632
2017-04-15T11:17:57.784Z,796
2017-04-15T11:19:06.858Z,844
2017-04-15T11:20:15.950Z,616
2017-04-15T11:21:25.036Z,736
2017-04-15T11:22:33.803Z,560
2017-04-15T11:23:42.890Z,548
2017-04-15T11:24:51.977Z,344
2017-04-15T11:26:01.374Z,512
2017-04-15T11:27:10.445Z,252
2017-04-15T11:28:19.515Z,384
2017-04-15T11:29:28.611Z,428
2017-04-15T11:30:37.686Z,504
2017-04-15T11:31:46.412Z,684
2017-04-15T11:32:56.035Z,712
2017-04-15T11:34:05.098Z,668
2017-04-15T11:35:13.969Z,580
2017-04-15T11:36:23.027Z,632
2017-04-15T11:37:32.350Z,692
2017-04-15T11:38:41.794Z,980
2017-04-15T11:39:51.133Z,884
2017-04-15T11:41:00.141Z,1124
2017-04-15T11:42:09.471Z,956
2017-04-15T11:43:18.539Z,916
2017-04-15T11:44:28.320Z,1000
2017-04-15T11:45:37.412Z,1216
2017-04-15T11:46:46.484Z,1596
2017-04-15T11:47:55.568Z,1920
2017-04-15T11:49:04.943Z,1280
2017-04-15T11:50:14.335Z,1688
2017-04-15T11:51:23.729Z,1704
2017-04-15T11:52:32.503Z,1216
2017-04-15T11:53:42.038Z,1748
2017-04-15T11:54:51.103Z,1716
2017-04-15T11:56:00.132Z,1364
2017-04-15T11:57:09.341Z,1160
2017-04-15T11:58:18.411Z,1356
2017-04-15T11:59:27.806Z,1952
2017-04-15T12:00:37.201Z,2076
2017-04-15T12:01:45.973Z,2032
2017-04-15T12:02:55.559Z,2596
2017-04-15T12:04:04.636Z,2352
2017-04-15T12:05:14.016Z,1928
2017-04-15T12:06:23.664Z,2420
2017-04-15T12:07:32.735Z,2456
2017-04-15T12:08:41.455Z,2644
2017-04-15T12:09:50.527Z,3252
2017-04-15T12:10:59.905Z,2552
2017-04-15T12:12:08.687Z,2044
2017-04-15T12:13:17.611Z,1376
2017-04-15T12:14:26.670Z,1176
2017-04-15T12:15:35.751Z,2160
2017-04-15T12:16:44.526Z,3612
2017-04-15T12:17:53.918Z,2940
2017-04-15T12:19:03.000Z,2636
2017-04-15T12:20:11.784Z,2456
2017-04-15T12:21:20.877Z,2692
2017-04-15T12:22:30.261Z,2504
2017-04-15T12:23:39.798Z,2224
2017-04-15T12:24:49.169Z,2508
2017-04-15T12:25:58.539Z,2052
2017-04-15T12:27:07.309Z,1712
2017-04-15T12:28:16.699Z,1404
2017-04-15T12:29:25.789Z,1984
2017-04-15T12:30:35.192Z,932
2017-04-15T12:31:43.960Z,852
2017-04-15T12:32:53.620Z,668
2017-04-15T12:34:02.936Z,588
2017-04-15T12:35:12.217Z,544
2017-04-15T12:36:20.991Z,516
2017-04-15T12:37:30.013Z,912
2017-04-15T12:38:39.024Z,948
2017-04-15T12:39:48.098Z,636
2017-04-15T12:40:57.182Z,380
2017-04-15T12:42:05.905Z,560
2017-04-15T12:43:15.230Z,400
2017-04-15T12:44:24.596Z,312
2017-04-15T12:45:33.669Z,280
2017-04-15T12:46:43.375Z,256
2017-04-15T12:47:52.098Z,252
2017-04-15T12:49:01.170Z,204
2017-04-15T12:50:10.391Z,208
2017-04-15T12:51:19.157Z,252
2017-04-15T12:52:28.194Z,184
2017-04-15T12:53:37.261Z,176
2017-04-15T12:54:46.649Z,172
2017-04-15T12:55:55.674Z,132
2017-04-15T12:57:05.049Z,124
2017-04-15T12:58:14.578Z,204
2017-04-15T12:59:23.677Z,328
2017-04-15T13:00:32.909Z,300
2017-04-15T13:01:42.292Z,448
2017-04-15T13:02:51.729Z,372
2017-04-15T13:04:00.903Z,404
2017-04-15T13:05:10.602Z,400
2017-04-15T13:06:19.726Z,348
2017-04-15T13:07:28.497Z,324
2017-04-15T13:08:37.746Z,292
2017-04-15T13:09:46.519Z,272
2017-04-15T13:10:55.855Z,248
2017-04-15T13:12:04.919Z,240
2017-04-15T13:13:14.008Z,244
2017-04-15T13:14:23.421Z,276
2017-04-15T13:15:32.451Z,380
2017-04-15T13:16:41.464Z,476
2017-04-15T13:17:50.875Z,536
2017-04-15T13:19:00.257Z,504
2017-04-15T13:20:09.328Z,524
2017-04-15T13:21:19.009Z,628
2017-04-15T13:22:27.793Z,724
2017-04-15T13:23:36.880Z,744
2017-04-15T13:24:46.272Z,760
2017-04-15T13:25:55.326Z,888
2017-04-15T13:27:04.423Z,1004
2017-04-15T13:28:13.205Z,1068
2017-04-15T13:29:22.910Z,856
2017-04-15T13:30:31.985Z,832
2017-04-15T13:31:41.372Z,840
2017-04-15T13:32:51.059Z,696
2017-04-15T13:34:00.783Z,612
2017-04-15T13:35:10.476Z,620
2017-04-15T13:36:19.549Z,552
2017-04-15T13:37:28.322Z,560
2017-04-15T13:38:37.722Z,500
2017-04-15T13:39:46.494Z,548
2017-04-15T13:40:55.877Z,628
2017-04-15T13:42:04.596Z,608
2017-04-15T13:43:13.667Z,600
2017-04-15T13:44:23.372Z,580
2017-04-15T13:45:32.454Z,584
2017-04-15T13:46:41.839Z,656
2017-04-15T13:47:51.469Z,660
2017-04-15T13:49:01.163Z,624
2017-04-15T13:50:09.938Z,592
2017-04-15T13:51:18.707Z,492
2017-04-15T13:52:27.796Z,432
2017-04-15T13:53:36.715Z,400
2017-04-15T13:54:45.480Z,436
2017-04-15T13:55:54.859Z,544
2017-04-15T13:57:03.631Z,768
2017-04-15T13:58:13.027Z,1100
2017-04-15T13:59:22.117Z,1380
2017-04-15T14:00:30.929Z,1292
2017-04-15T14:01:39.702Z,1380
2017-04-15T14:02:48.791Z,1776
2017-04-15T14:03:58.488Z,1956
2017-04-15T14:05:07.770Z,2072
2017-04-15T14:06:16.848Z,2148
2017-04-15T14:07:25.920Z,2268
2017-04-15T14:08:35.007Z,2236
2017-04-15T14:09:44.400Z,2052
2017-04-15T14:10:53.478Z,1836
2017-04-15T14:12:02.862Z,1732
2017-04-15T14:13:11.640Z,1576
2017-04-15T14:14:20.790Z,1356
2017-04-15T14:15:29.796Z,1052
2017-04-15T14:16:38.878Z,1020
2017-04-15T14:17:48.196Z,812
2017-04-15T14:18:57.881Z,516
2017-04-15T14:20:06.894Z,476
2017-04-15T14:21:15.866Z,336
2017-04-15T14:22:24.936Z,256
2017-04-15T14:23:33.728Z,220
2017-04-15T14:24:42.823Z,208
2017-04-15T14:25:51.591Z,276
2017-04-15T14:27:00.979Z,248
2017-04-15T14:28:10.359Z,212
2017-04-15T14:29:19.744Z,160
2017-04-15T14:30:28.811Z,260
2017-04-15T14:31:37.796Z,352
2017-04-15T14:32:46.563Z,396
2017-04-15T14:33:55.954Z,508
2017-04-15T14:35:05.944Z,584
2017-04-15T14:36:14.722Z,556
2017-04-15T14:37:23.495Z,520
2017-04-15T14:38:32.261Z,388
2017-04-15T14:39:41.035Z,296
2017-04-15T14:40:49.805Z,320
2017-04-15T14:41:58.574Z,320
2017-04-15T14:43:07.650Z,296
2017-04-15T14:44:16.987Z,292
2017-04-15T14:45:26.335Z,252
2017-04-15T14:46:35.337Z,356
2017-04-15T14:47:44.095Z,576
2017-04-15T14:48:53.430Z,688
2017-04-15T14:50:02.197Z,964
2017-04-15T14:51:11.276Z,832
2017-04-15T14:52:20.318Z,592
2017-04-15T14:53:29.691Z,644
2017-04-15T14:54:38.756Z,1044
2017-04-15T14:55:47.830Z,1280
2017-04-15T14:56:56.904Z,1268
2017-04-15T14:58:06.244Z,1040
2017-04-15T14:59:15.819Z,1056
2017-04-15T15:00:24.900Z,1040
2017-04-15T15:01:33.976Z,1020
2017-04-15T15:02:43.028Z,1124
2017-04-15T15:03:52.418Z,1208
2017-04-15T15:05:01.802Z,1200
2017-04-15T15:06:10.879Z,1080
2017-04-15T15:07:19.954Z,1136
2017-04-15T15:08:28.977Z,1212
2017-04-15T15:09:37.731Z,1256
2017-04-15T15:10:46.505Z,1200
2017-04-15T15:11:55.223Z,1172
2017-04-15T15:13:04.283Z,1164
2017-04-15T15:14:13.645Z,1168
2017-04-15T15:15:23.297Z,1188
2017-04-15T15:16:32.058Z,1192
2017-04-15T15:17:41.757Z,1180
2017-04-15T15:18:51.148Z,1132
2017-04-15T15:20:00.224Z,1072
2017-04-15T15:21:09.278Z,996
2017-04-15T15:22:18.686Z,956
2017-04-15T15:23:28.368Z,976
2017-04-15T15:24:37.976Z,1020
2017-04-15T15:25:47.050Z,1040
2017-04-15T15:26:56.143Z,1052
2017-04-15T15:28:04.923Z,1044
2017-04-15T15:29:13.692Z,976
2017-04-15T15:30:23.092Z,860
2017-04-15T15:31:31.860Z,1012
2017-04-15T15:32:41.799Z,1052
2017-04-15T15:33:51.512Z,944
2017-04-15T15:35:00.615Z,960
2017-04-15T15:36:09.644Z,960
2017-04-15T15:37:18.400Z,932
2017-04-15T15:38:27.426Z,904
2017-04-15T15:39:36.799Z,800
2017-04-15T15:40:45.870Z,880
2017-04-15T15:41:55.448Z,920
2017-04-15T15:43:04.822Z,920
2017-04-15T15:44:13.919Z,784
2017-04-15T15:45:23.939Z,540
2017-04-15T15:46:32.707Z,368
2017-04-15T15:47:41.786Z,288
2017-04-15T15:48:51.776Z,332
2017-04-15T15:50:00.655Z,384
2017-04-15T15:51:09.733Z,560
2017-04-15T15:52:18.761Z,760
2017-04-15T15:53:27.846Z,768
2017-04-15T15:54:36.930Z,772
2017-04-15T15:55:45.698Z,704
2017-04-15T15:56:54.781Z,628
2017-04-15T15:58:04.469Z,628
2017-04-15T15:59:13.853Z,632
2017-04-15T16:00:23.558Z,716
2017-04-15T16:01:32.948Z,816
2017-04-15T16:02:42.341Z,836
2017-04-15T16:03:51.730Z,704
2017-04-15T16:05:00.954Z,692
2017-04-15T16:06:10.031Z,736
2017-04-15T16:07:18.752Z,772
2017-04-15T16:08:27.739Z,788
2017-04-15T16:09:36.512Z,808